sensor_id;sensor_type;location;lat;lon;timestamp;temperature;humidity
50758;DHT22;36732;47.980;11.652;2022-11-30T00:00:37;8.40;64.60
50758;DHT22;36732;47.980;11.652;2022-11-30T00:03:03;8.40;64.60
50758;DHT22;36732;47.980;11.652;2022-11-30T00:05:29;8.40;64.50
50758;DHT22;36732;47.980;11.652;2022-11-30T00:07:55;8.40;64.40
50758;DHT22;36732;47.980;11.652;2022-11-30T00:10:21;8.40;64.40
50758;DHT22;36732;47.980;11.652;2022-11-30T00:12:48;8.30;64.30
50758;DHT22;36732;47.980;11.652;2022-11-30T00:15:15;8.30;64.30
50758;DHT22;36732;47.980;11.652;2022-11-30T00:17:45;8.30;64.20
50758;DHT22;36732;47.980;11.652;2022-11-30T00:20:13;8.20;64.00
50758;DHT22;36732;47.980;11.652;2022-11-30T00:22:40;8.20;63.90
50758;DHT22;36732;47.980;11.652;2022-11-30T00:25:06;8.20;64.10
50758;DHT22;36732;47.980;11.652;2022-11-30T00:27:33;8.20;64.20
50758;DHT22;36732;47.980;11.652;2022-11-30T00:29:59;8.20;63.90
50758;DHT22;36732;47.980;11.652;2022-11-30T00:32:27;8.20;64.00
50758;DHT22;36732;47.980;11.652;2022-11-30T00:34:53;8.20;64.00
50758;DHT22;36732;47.980;11.652;2022-11-30T00:37:19;8.20;64.10
50758;DHT22;36732;47.980;11.652;2022-11-30T00:39:45;8.10;64.00
50758;DHT22;36732;47.980;11.652;2022-11-30T00:42:10;8.20;63.90
50758;DHT22;36732;47.980;11.652;2022-11-30T00:44:36;8.20;63.50
50758;DHT22;36732;47.980;11.652;2022-11-30T00:47:02;8.20;63.50
50758;DHT22;36732;47.980;11.652;2022-11-30T00:49:28;8.10;63.40
50758;DHT22;36732;47.980;11.652;2022-11-30T00:51:54;8.10;63.50
50758;DHT22;36732;47.980;11.652;2022-11-30T00:54:19;8.10;63.60
50758;DHT22;36732;47.980;11.652;2022-11-30T00:56:45;8.20;63.60
50758;DHT22;36732;47.980;11.652;2022-11-30T00:59:11;8.10;63.50
50758;DHT22;36732;47.980;11.652;2022-11-30T01:01:37;8.10;63.50
50758;DHT22;36732;47.980;11.652;2022-11-30T01:04:03;8.10;63.50
50758;DHT22;36732;47.980;11.652;2022-11-30T01:06:29;8.20;63.60
50758;DHT22;36732;47.980;11.652;2022-11-30T01:08:55;8.20;63.60
50758;DHT22;36732;47.980;11.652;2022-11-30T01:11:27;8.20;63.50
50758;DHT22;36732;47.980;11.652;2022-11-30T01:13:55;8.20;63.40
50758;DHT22;36732;47.980;11.652;2022-11-30T01:16:25;8.20;63.40
50758;DHT22;36732;47.980;11.652;2022-11-30T01:18:52;8.20;63.40
50758;DHT22;36732;47.980;11.652;2022-11-30T01:21:21;8.20;63.40
50758;DHT22;36732;47.980;11.652;2022-11-30T01:23:48;8.20;63.20
50758;DHT22;36732;47.980;11.652;2022-11-30T01:26:15;8.20;63.20
50758;DHT22;36732;47.980;11.652;2022-11-30T01:28:41;8.20;63.10
50758;DHT22;36732;47.980;11.652;2022-11-30T01:31:11;8.20;63.10
50758;DHT22;36732;47.980;11.652;2022-11-30T01:33:38;8.20;63.10
50758;DHT22;36732;47.980;11.652;2022-11-30T01:36:13;8.20;63.10
50758;DHT22;36732;47.980;11.652;2022-11-30T01:38:52;8.20;62.90
50758;DHT22;36732;47.980;11.652;2022-11-30T01:41:23;8.20;63.20
50758;DHT22;36732;47.980;11.652;2022-11-30T01:43:52;8.20;63.20
50758;DHT22;36732;47.980;11.652;2022-11-30T01:46:37;8.20;63.20
50758;DHT22;36732;47.980;11.652;2022-11-30T01:51:56;8.20;63.20
50758;DHT22;36732;47.980;11.652;2022-11-30T01:54:28;8.20;62.80
50758;DHT22;36732;47.980;11.652;2022-11-30T01:57:03;8.20;63.10
50758;DHT22;36732;47.980;11.652;2022-11-30T01:59:32;8.20;63.10
50758;DHT22;36732;47.980;11.652;2022-11-30T02:01:58;8.20;63.10
50758;DHT22;36732;47.980;11.652;2022-11-30T02:04:42;8.20;63.20
50758;DHT22;36732;47.980;11.652;2022-11-30T02:07:07;8.20;63.00
50758;DHT22;36732;47.980;11.652;2022-11-30T02:09:39;8.20;63.20
50758;DHT22;36732;47.980;11.652;2022-11-30T02:12:16;8.20;63.10
50758;DHT22;36732;47.980;11.652;2022-11-30T02:14:52;8.20;63.10
50758;DHT22;36732;47.980;11.652;2022-11-30T02:17:33;8.20;63.10
50758;DHT22;36732;47.980;11.652;2022-11-30T02:20:16;8.20;63.00
50758;DHT22;36732;47.980;11.652;2022-11-30T02:23:24;8.20;62.90
50758;DHT22;36732;47.980;11.652;2022-11-30T02:32:33;8.20;63.00
50758;DHT22;36732;47.980;11.652;2022-11-30T02:35:05;8.20;63.10
50758;DHT22;36732;47.980;11.652;2022-11-30T02:37:33;8.20;63.10
50758;DHT22;36732;47.980;11.652;2022-11-30T02:40:00;8.20;63.20
50758;DHT22;36732;47.980;11.652;2022-11-30T02:42:26;8.20;63.20
50758;DHT22;36732;47.980;11.652;2022-11-30T02:44:52;8.10;63.80
50758;DHT22;36732;47.980;11.652;2022-11-30T02:47:34;8.20;63.20
50758;DHT22;36732;47.980;11.652;2022-11-30T02:50:24;8.20;63.20
50758;DHT22;36732;47.980;11.652;2022-11-30T02:52:53;8.20;63.10
50758;DHT22;36732;47.980;11.652;2022-11-30T02:55:19;8.10;63.20
50758;DHT22;36732;47.980;11.652;2022-11-30T02:57:45;8.10;63.20
50758;DHT22;36732;47.980;11.652;2022-11-30T03:00:12;8.10;63.20
50758;DHT22;36732;47.980;11.652;2022-11-30T03:02:39;8.10;63.20
50758;DHT22;36732;47.980;11.652;2022-11-30T03:05:06;8.10;63.20
50758;DHT22;36732;47.980;11.652;2022-11-30T03:07:32;8.10;63.30
50758;DHT22;36732;47.980;11.652;2022-11-30T03:09:58;8.10;63.10
50758;DHT22;36732;47.980;11.652;2022-11-30T03:12:25;8.10;63.30
50758;DHT22;36732;47.980;11.652;2022-11-30T03:14:51;8.10;63.40
50758;DHT22;36732;47.980;11.652;2022-11-30T03:17:17;8.10;63.40
50758;DHT22;36732;47.980;11.652;2022-11-30T03:19:43;8.10;63.50
50758;DHT22;36732;47.980;11.652;2022-11-30T03:22:09;8.10;63.40
50758;DHT22;36732;47.980;11.652;2022-11-30T03:24:34;8.10;63.60
50758;DHT22;36732;47.980;11.652;2022-11-30T03:27:00;8.10;63.60
50758;DHT22;36732;47.980;11.652;2022-11-30T03:29:26;8.10;63.40
50758;DHT22;36732;47.980;11.652;2022-11-30T03:31:52;8.10;63.40
50758;DHT22;36732;47.980;11.652;2022-11-30T03:34:17;8.10;63.40
50758;DHT22;36732;47.980;11.652;2022-11-30T03:36:43;8.10;63.30
50758;DHT22;36732;47.980;11.652;2022-11-30T03:39:09;8.10;63.20
50758;DHT22;36732;47.980;11.652;2022-11-30T03:41:35;8.10;63.40
50758;DHT22;36732;47.980;11.652;2022-11-30T03:44:01;8.10;63.40
50758;DHT22;36732;47.980;11.652;2022-11-30T03:46:27;8.00;63.60
50758;DHT22;36732;47.980;11.652;2022-11-30T03:48:53;8.00;63.60
50758;DHT22;36732;47.980;11.652;2022-11-30T03:51:19;8.00;63.60
50758;DHT22;36732;47.980;11.652;2022-11-30T03:53:44;8.00;63.60
50758;DHT22;36732;47.980;11.652;2022-11-30T03:56:11;8.00;63.70
50758;DHT22;36732;47.980;11.652;2022-11-30T03:58:38;8.00;63.70
50758;DHT22;36732;47.980;11.652;2022-11-30T04:01:12;8.00;63.80
50758;DHT22;36732;47.980;11.652;2022-11-30T04:03:40;8.00;63.80
50758;DHT22;36732;47.980;11.652;2022-11-30T04:06:08;8.10;63.70
50758;DHT22;36732;47.980;11.652;2022-11-30T04:08:35;8.00;63.60
50758;DHT22;36732;47.980;11.652;2022-11-30T04:11:03;8.00;63.70
50758;DHT22;36732;47.980;11.652;2022-11-30T04:13:30;8.00;63.80
50758;DHT22;36732;47.980;11.652;2022-11-30T04:15:56;8.00;63.80
50758;DHT22;36732;47.980;11.652;2022-11-30T04:18:23;8.00;63.90
50758;DHT22;36732;47.980;11.652;2022-11-30T04:20:55;8.00;64.10
50758;DHT22;36732;47.980;11.652;2022-11-30T04:23:23;7.90;64.00
50758;DHT22;36732;47.980;11.652;2022-11-30T04:25:49;7.90;64.20
50758;DHT22;36732;47.980;11.652;2022-11-30T04:28:16;7.90;64.30
50758;DHT22;36732;47.980;11.652;2022-11-30T04:30:43;7.90;64.30
50758;DHT22;36732;47.980;11.652;2022-11-30T04:33:11;8.00;64.90
50758;DHT22;36732;47.980;11.652;2022-11-30T04:35:41;8.00;64.30
50758;DHT22;36732;47.980;11.652;2022-11-30T04:38:11;7.90;64.90
50758;DHT22;36732;47.980;11.652;2022-11-30T04:40:41;7.90;64.30
50758;DHT22;36732;47.980;11.652;2022-11-30T04:43:08;7.90;64.40
50758;DHT22;36732;47.980;11.652;2022-11-30T04:45:34;7.90;64.40
50758;DHT22;36732;47.980;11.652;2022-11-30T04:48:00;7.90;64.50
50758;DHT22;36732;47.980;11.652;2022-11-30T04:50:25;8.00;64.50
50758;DHT22;36732;47.980;11.652;2022-11-30T04:52:51;8.00;64.60
50758;DHT22;36732;47.980;11.652;2022-11-30T04:55:17;8.00;64.40
50758;DHT22;36732;47.980;11.652;2022-11-30T04:57:44;8.00;64.30
50758;DHT22;36732;47.980;11.652;2022-11-30T05:00:12;8.00;64.50
50758;DHT22;36732;47.980;11.652;2022-11-30T05:02:39;8.00;64.60
50758;DHT22;36732;47.980;11.652;2022-11-30T05:05:05;7.90;64.50
50758;DHT22;36732;47.980;11.652;2022-11-30T05:07:31;7.90;64.60
50758;DHT22;36732;47.980;11.652;2022-11-30T05:09:57;8.00;64.70
50758;DHT22;36732;47.980;11.652;2022-11-30T05:12:22;8.00;64.60
50758;DHT22;36732;47.980;11.652;2022-11-30T05:14:48;8.00;64.60
50758;DHT22;36732;47.980;11.652;2022-11-30T05:17:14;8.00;64.60
50758;DHT22;36732;47.980;11.652;2022-11-30T05:19:40;8.00;64.50
50758;DHT22;36732;47.980;11.652;2022-11-30T05:22:06;8.00;64.60
50758;DHT22;36732;47.980;11.652;2022-11-30T05:24:31;8.00;64.60
50758;DHT22;36732;47.980;11.652;2022-11-30T05:26:57;7.90;64.60
50758;DHT22;36732;47.980;11.652;2022-11-30T05:29:23;7.90;64.80
50758;DHT22;36732;47.980;11.652;2022-11-30T05:31:49;7.90;64.70
50758;DHT22;36732;47.980;11.652;2022-11-30T05:34:15;7.90;64.60
50758;DHT22;36732;47.980;11.652;2022-11-30T05:36:41;7.90;64.80
50758;DHT22;36732;47.980;11.652;2022-11-30T05:39:06;7.90;64.90
50758;DHT22;36732;47.980;11.652;2022-11-30T05:41:32;7.90;64.90
50758;DHT22;36732;47.980;11.652;2022-11-30T05:43:58;7.90;64.90
50758;DHT22;36732;47.980;11.652;2022-11-30T05:46:23;8.00;65.00
50758;DHT22;36732;47.980;11.652;2022-11-30T05:48:49;7.90;64.90
50758;DHT22;36732;47.980;11.652;2022-11-30T05:51:17;8.00;65.10
50758;DHT22;36732;47.980;11.652;2022-11-30T05:53:45;7.90;64.80
50758;DHT22;36732;47.980;11.652;2022-11-30T05:56:17;7.90;64.90
50758;DHT22;36732;47.980;11.652;2022-11-30T05:58:44;7.90;64.80
50758;DHT22;36732;47.980;11.652;2022-11-30T06:01:21;7.90;64.90
50758;DHT22;36732;47.980;11.652;2022-11-30T06:03:49;7.90;64.70
50758;DHT22;36732;47.980;11.652;2022-11-30T06:06:15;7.90;64.80
50758;DHT22;36732;47.980;11.652;2022-11-30T06:08:41;7.90;64.90
50758;DHT22;36732;47.980;11.652;2022-11-30T06:11:07;7.90;64.70
50758;DHT22;36732;47.980;11.652;2022-11-30T06:13:33;7.90;64.60
50758;DHT22;36732;47.980;11.652;2022-11-30T06:16:00;7.90;64.70
50758;DHT22;36732;47.980;11.652;2022-11-30T06:18:27;7.90;64.60
50758;DHT22;36732;47.980;11.652;2022-11-30T06:20:52;7.90;64.60
50758;DHT22;36732;47.980;11.652;2022-11-30T06:23:18;7.90;64.60
50758;DHT22;36732;47.980;11.652;2022-11-30T06:25:44;7.90;64.60
50758;DHT22;36732;47.980;11.652;2022-11-30T06:28:10;7.80;64.80
50758;DHT22;36732;47.980;11.652;2022-11-30T06:30:36;7.80;64.80
50758;DHT22;36732;47.980;11.652;2022-11-30T06:33:02;7.80;65.00
50758;DHT22;36732;47.980;11.652;2022-11-30T06:35:28;7.80;65.00
50758;DHT22;36732;47.980;11.652;2022-11-30T06:37:53;7.80;64.80
50758;DHT22;36732;47.980;11.652;2022-11-30T06:40:19;7.80;64.80
50758;DHT22;36732;47.980;11.652;2022-11-30T06:42:45;7.80;64.70
50758;DHT22;36732;47.980;11.652;2022-11-30T06:45:11;7.80;64.70
50758;DHT22;36732;47.980;11.652;2022-11-30T06:47:37;7.80;64.80
50758;DHT22;36732;47.980;11.652;2022-11-30T06:50:03;7.80;64.80
50758;DHT22;36732;47.980;11.652;2022-11-30T06:52:30;7.80;64.70
50758;DHT22;36732;47.980;11.652;2022-11-30T06:54:56;7.80;64.90
50758;DHT22;36732;47.980;11.652;2022-11-30T06:57:26;7.80;64.80
50758;DHT22;36732;47.980;11.652;2022-11-30T06:59:52;7.80;65.50
50758;DHT22;36732;47.980;11.652;2022-11-30T07:02:18;7.80;64.90
50758;DHT22;36732;47.980;11.652;2022-11-30T07:04:44;7.80;65.40
50758;DHT22;36732;47.980;11.652;2022-11-30T07:07:10;7.80;64.80
50758;DHT22;36732;47.980;11.652;2022-11-30T07:09:36;7.90;64.90
50758;DHT22;36732;47.980;11.652;2022-11-30T07:12:02;7.80;64.80
50758;DHT22;36732;47.980;11.652;2022-11-30T07:14:28;7.80;64.80
50758;DHT22;36732;47.980;11.652;2022-11-30T07:16:55;7.80;64.80
50758;DHT22;36732;47.980;11.652;2022-11-30T07:19:21;7.90;64.90
50758;DHT22;36732;47.980;11.652;2022-11-30T07:21:47;7.90;64.90
50758;DHT22;36732;47.980;11.652;2022-11-30T07:24:14;7.90;64.90
50758;DHT22;36732;47.980;11.652;2022-11-30T07:26:59;7.90;64.90
50758;DHT22;36732;47.980;11.652;2022-11-30T07:29:26;7.90;64.90
50758;DHT22;36732;47.980;11.652;2022-11-30T07:31:52;7.90;65.00
50758;DHT22;36732;47.980;11.652;2022-11-30T07:34:19;7.90;65.00
50758;DHT22;36732;47.980;11.652;2022-11-30T07:36:45;7.90;65.00
50758;DHT22;36732;47.980;11.652;2022-11-30T07:39:12;7.90;64.90
50758;DHT22;36732;47.980;11.652;2022-11-30T07:41:39;7.90;64.90
50758;DHT22;36732;47.980;11.652;2022-11-30T07:44:06;8.00;65.00
50758;DHT22;36732;47.980;11.652;2022-11-30T07:46:33;7.90;65.00
50758;DHT22;36732;47.980;11.652;2022-11-30T07:49:07;8.00;64.90
50758;DHT22;36732;47.980;11.652;2022-11-30T07:51:34;7.90;64.90
50758;DHT22;36732;47.980;11.652;2022-11-30T07:54:01;8.00;65.00
50758;DHT22;36732;47.980;11.652;2022-11-30T07:56:27;7.90;64.90
50758;DHT22;36732;47.980;11.652;2022-11-30T07:58:58;8.00;65.00
50758;DHT22;36732;47.980;11.652;2022-11-30T08:01:26;8.00;65.00
50758;DHT22;36732;47.980;11.652;2022-11-30T08:03:54;8.00;65.00
50758;DHT22;36732;47.980;11.652;2022-11-30T08:06:22;8.00;64.90
50758;DHT22;36732;47.980;11.652;2022-11-30T08:08:50;8.00;64.90
50758;DHT22;36732;47.980;11.652;2022-11-30T08:11:22;8.00;64.90
50758;DHT22;36732;47.980;11.652;2022-11-30T08:13:51;8.00;64.90
50758;DHT22;36732;47.980;11.652;2022-11-30T08:16:23;8.00;65.00
50758;DHT22;36732;47.980;11.652;2022-11-30T08:18:50;8.00;64.90
50758;DHT22;36732;47.980;11.652;2022-11-30T08:21:18;8.00;64.90
50758;DHT22;36732;47.980;11.652;2022-11-30T08:23:47;8.00;64.90
50758;DHT22;36732;47.980;11.652;2022-11-30T08:26:31;8.00;64.80
50758;DHT22;36732;47.980;11.652;2022-11-30T08:28:58;8.00;64.90
50758;DHT22;36732;47.980;11.652;2022-11-30T08:31:28;8.00;64.90
50758;DHT22;36732;47.980;11.652;2022-11-30T08:34:03;8.00;64.90
50758;DHT22;36732;47.980;11.652;2022-11-30T08:36:31;8.00;64.90
50758;DHT22;36732;47.980;11.652;2022-11-30T08:38:58;8.00;65.00
50758;DHT22;36732;47.980;11.652;2022-11-30T08:41:25;8.00;64.90
50758;DHT22;36732;47.980;11.652;2022-11-30T08:43:51;8.00;65.00
50758;DHT22;36732;47.980;11.652;2022-11-30T08:46:19;8.00;65.00
50758;DHT22;36732;47.980;11.652;2022-11-30T08:48:46;8.00;65.00
50758;DHT22;36732;47.980;11.652;2022-11-30T08:51:13;8.00;65.00
50758;DHT22;36732;47.980;11.652;2022-11-30T08:53:40;8.00;65.10
50758;DHT22;36732;47.980;11.652;2022-11-30T08:56:12;8.00;65.10
50758;DHT22;36732;47.980;11.652;2022-11-30T08:58:42;8.00;65.10
50758;DHT22;36732;47.980;11.652;2022-11-30T09:01:22;8.00;65.00
50758;DHT22;36732;47.980;11.652;2022-11-30T09:03:52;8.00;64.90
50758;DHT22;36732;47.980;11.652;2022-11-30T09:06:28;8.00;64.90
50758;DHT22;36732;47.980;11.652;2022-11-30T09:08:56;8.00;64.90
50758;DHT22;36732;47.980;11.652;2022-11-30T09:11:30;8.10;65.00
50758;DHT22;36732;47.980;11.652;2022-11-30T09:13:59;8.00;65.10
50758;DHT22;36732;47.980;11.652;2022-11-30T09:16:26;8.00;65.00
50758;DHT22;36732;47.980;11.652;2022-11-30T09:18:52;8.00;64.90
50758;DHT22;36732;47.980;11.652;2022-11-30T09:21:21;8.00;65.00
50758;DHT22;36732;47.980;11.652;2022-11-30T09:23:48;8.00;64.90
50758;DHT22;36732;47.980;11.652;2022-11-30T09:26:16;8.10;65.00
50758;DHT22;36732;47.980;11.652;2022-11-30T09:28:44;8.00;64.90
50758;DHT22;36732;47.980;11.652;2022-11-30T09:31:19;8.00;65.00
50758;DHT22;36732;47.980;11.652;2022-11-30T09:33:46;8.00;65.10
50758;DHT22;36732;47.980;11.652;2022-11-30T09:36:15;8.00;65.00
50758;DHT22;36732;47.980;11.652;2022-11-30T09:38:43;8.00;64.90
50758;DHT22;36732;47.980;11.652;2022-11-30T09:44:06;8.00;64.90
50758;DHT22;36732;47.980;11.652;2022-11-30T09:46:40;8.00;65.00
50758;DHT22;36732;47.980;11.652;2022-11-30T09:49:32;8.00;65.10
50758;DHT22;36732;47.980;11.652;2022-11-30T09:52:02;8.00;65.00
50758;DHT22;36732;47.980;11.652;2022-11-30T09:54:35;8.00;65.10
50758;DHT22;36732;47.980;11.652;2022-11-30T09:59:50;8.00;64.90
50758;DHT22;36732;47.980;11.652;2022-11-30T10:02:27;8.00;64.90
50758;DHT22;36732;47.980;11.652;2022-11-30T10:04:54;8.10;65.20
50758;DHT22;36732;47.980;11.652;2022-11-30T10:19:29;8.00;64.90
50758;DHT22;36732;47.980;11.652;2022-11-30T10:27:53;8.00;64.90
50758;DHT22;36732;47.980;11.652;2022-11-30T10:30:25;8.00;64.90
50758;DHT22;36732;47.980;11.652;2022-11-30T10:33:17;8.00;65.00
50758;DHT22;36732;47.980;11.652;2022-11-30T10:35:50;8.10;65.00
50758;DHT22;36732;47.980;11.652;2022-11-30T10:38:28;8.00;64.90
50758;DHT22;36732;47.980;11.652;2022-11-30T10:41:19;8.10;65.00
50758;DHT22;36732;47.980;11.652;2022-11-30T10:44:00;8.10;65.00
50758;DHT22;36732;47.980;11.652;2022-11-30T10:46:36;8.10;65.00
50758;DHT22;36732;47.980;11.652;2022-11-30T10:49:15;8.00;64.90
50758;DHT22;36732;47.980;11.652;2022-11-30T10:51:47;8.00;64.90
50758;DHT22;36732;47.980;11.652;2022-11-30T10:54:18;8.10;65.00
50758;DHT22;36732;47.980;11.652;2022-11-30T10:56:45;8.10;65.00
50758;DHT22;36732;47.980;11.652;2022-11-30T10:59:18;8.10;65.00
50758;DHT22;36732;47.980;11.652;2022-11-30T11:01:47;8.10;65.00
50758;DHT22;36732;47.980;11.652;2022-11-30T11:04:19;8.00;64.90
50758;DHT22;36732;47.980;11.652;2022-11-30T11:07:08;8.00;64.90
50758;DHT22;36732;47.980;11.652;2022-11-30T11:09:38;8.00;65.00
50758;DHT22;36732;47.980;11.652;2022-11-30T11:12:17;8.00;64.90
50758;DHT22;36732;47.980;11.652;2022-11-30T11:14:44;8.00;64.90
50758;DHT22;36732;47.980;11.652;2022-11-30T11:17:22;8.00;65.00
50758;DHT22;36732;47.980;11.652;2022-11-30T11:19:50;8.00;64.90
50758;DHT22;36732;47.980;11.652;2022-11-30T11:22:30;8.00;64.70
50758;DHT22;36732;47.980;11.652;2022-11-30T11:25:24;8.00;64.30
50758;DHT22;36732;47.980;11.652;2022-11-30T11:28:07;8.00;64.40
50758;DHT22;36732;47.980;11.652;2022-11-30T11:30:39;8.00;64.60
50758;DHT22;36732;47.980;11.652;2022-11-30T11:36:32;8.00;64.90
50758;DHT22;36732;47.980;11.652;2022-11-30T11:38:46;8.00;65.50
50758;DHT22;36732;47.980;11.652;2022-11-30T11:41:19;8.00;64.60
50758;DHT22;36732;47.980;11.652;2022-11-30T11:44:03;8.00;64.90
50758;DHT22;36732;47.980;11.652;2022-11-30T11:46:35;8.00;64.80
50758;DHT22;36732;47.980;11.652;2022-11-30T11:49:18;8.00;64.60
50758;DHT22;36732;47.980;11.652;2022-11-30T11:51:45;8.00;64.30
50758;DHT22;36732;47.980;11.652;2022-11-30T11:54:26;8.00;64.30
50758;DHT22;36732;47.980;11.652;2022-11-30T11:56:56;8.00;64.40
50758;DHT22;36732;47.980;11.652;2022-11-30T12:04:49;8.00;64.70
50758;DHT22;36732;47.980;11.652;2022-11-30T12:07:33;8.10;64.80
50758;DHT22;36732;47.980;11.652;2022-11-30T12:12:59;8.00;65.10
50758;DHT22;36732;47.980;11.652;2022-11-30T12:15:34;8.10;65.00
50758;DHT22;36732;47.980;11.652;2022-11-30T12:18:07;8.10;64.90
50758;DHT22;36732;47.980;11.652;2022-11-30T12:20:57;8.10;64.90
50758;DHT22;36732;47.980;11.652;2022-11-30T12:23:41;8.10;64.90
50758;DHT22;36732;47.980;11.652;2022-11-30T12:27:04;8.10;65.00
50758;DHT22;36732;47.980;11.652;2022-11-30T12:34:56;8.20;65.00
50758;DHT22;36732;47.980;11.652;2022-11-30T13:01:00;8.20;65.00
50758;DHT22;36732;47.980;11.652;2022-11-30T13:06:50;8.20;64.70
50758;DHT22;36732;47.980;11.652;2022-11-30T13:09:29;8.20;64.70
50758;DHT22;36732;47.980;11.652;2022-11-30T13:12:12;8.20;64.80
50758;DHT22;36732;47.980;11.652;2022-11-30T13:14:42;8.20;64.70
50758;DHT22;36732;47.980;11.652;2022-11-30T13:17:16;8.20;64.80
50758;DHT22;36732;47.980;11.652;2022-11-30T13:22:25;8.20;64.80
50758;DHT22;36732;47.980;11.652;2022-11-30T13:25:21;8.20;64.90
50758;DHT22;36732;47.980;11.652;2022-11-30T13:36:45;8.20;64.70
50758;DHT22;36732;47.980;11.652;2022-11-30T13:41:47;8.20;64.60
50758;DHT22;36732;47.980;11.652;2022-11-30T13:44:31;8.20;64.70
50758;DHT22;36732;47.980;11.652;2022-11-30T13:46:59;8.20;64.80
50758;DHT22;36732;47.980;11.652;2022-11-30T13:49:31;8.20;64.80
50758;DHT22;36732;47.980;11.652;2022-11-30T13:52:00;8.20;64.70
50758;DHT22;36732;47.980;11.652;2022-11-30T13:54:47;8.20;64.90
50758;DHT22;36732;47.980;11.652;2022-11-30T13:59:50;8.20;64.50
50758;DHT22;36732;47.980;11.652;2022-11-30T14:10:36;8.10;64.60
50758;DHT22;36732;47.980;11.652;2022-11-30T14:13:25;8.10;64.70
50758;DHT22;36732;47.980;11.652;2022-11-30T14:15:58;8.10;64.70
50758;DHT22;36732;47.980;11.652;2022-11-30T14:18:41;8.10;64.70
50758;DHT22;36732;47.980;11.652;2022-11-30T14:21:30;8.10;64.80
50758;DHT22;36732;47.980;11.652;2022-11-30T14:23:58;8.10;64.90
50758;DHT22;36732;47.980;11.652;2022-11-30T14:26:29;8.10;64.90
50758;DHT22;36732;47.980;11.652;2022-11-30T14:32:02;8.10;65.00
50758;DHT22;36732;47.980;11.652;2022-11-30T14:34:41;8.10;64.90
50758;DHT22;36732;47.980;11.652;2022-11-30T14:37:21;8.10;65.00
50758;DHT22;36732;47.980;11.652;2022-11-30T14:39:49;8.10;64.80
50758;DHT22;36732;47.980;11.652;2022-11-30T14:42:28;8.10;64.80
50758;DHT22;36732;47.980;11.652;2022-11-30T14:44:55;8.10;64.70
50758;DHT22;36732;47.980;11.652;2022-11-30T14:47:25;8.10;64.70
50758;DHT22;36732;47.980;11.652;2022-11-30T14:49:56;8.10;64.80
50758;DHT22;36732;47.980;11.652;2022-11-30T14:55:36;8.00;64.90
50758;DHT22;36732;47.980;11.652;2022-11-30T15:00:47;8.00;64.70
50758;DHT22;36732;47.980;11.652;2022-11-30T15:03:25;8.00;64.60
50758;DHT22;36732;47.980;11.652;2022-11-30T15:05:58;8.00;64.50
50758;DHT22;36732;47.980;11.652;2022-11-30T15:08:33;8.00;64.50
50758;DHT22;36732;47.980;11.652;2022-11-30T15:11:05;8.00;64.50
50758;DHT22;36732;47.980;11.652;2022-11-30T15:13:33;8.00;64.50
50758;DHT22;36732;47.980;11.652;2022-11-30T15:16:08;8.10;64.50
50758;DHT22;36732;47.980;11.652;2022-11-30T15:18:40;8.00;64.40
50758;DHT22;36732;47.980;11.652;2022-11-30T15:21:07;8.10;64.40
50758;DHT22;36732;47.980;11.652;2022-11-30T15:23:39;8.10;64.40
50758;DHT22;36732;47.980;11.652;2022-11-30T15:26:12;8.10;64.40
50758;DHT22;36732;47.980;11.652;2022-11-30T15:28:56;8.10;64.30
50758;DHT22;36732;47.980;11.652;2022-11-30T15:31:31;8.10;64.20
50758;DHT22;36732;47.980;11.652;2022-11-30T15:33:59;8.10;64.20
50758;DHT22;36732;47.980;11.652;2022-11-30T15:36:24;8.10;64.30
50758;DHT22;36732;47.980;11.652;2022-11-30T15:38:51;8.10;64.30
50758;DHT22;36732;47.980;11.652;2022-11-30T15:41:24;8.10;64.10
50758;DHT22;36732;47.980;11.652;2022-11-30T15:43:52;8.10;64.00
50758;DHT22;36732;47.980;11.652;2022-11-30T15:46:28;8.10;64.20
50758;DHT22;36732;47.980;11.652;2022-11-30T15:49:16;8.10;64.10
50758;DHT22;36732;47.980;11.652;2022-11-30T15:51:47;8.10;64.20
50758;DHT22;36732;47.980;11.652;2022-11-30T15:54:41;8.10;64.10
50758;DHT22;36732;47.980;11.652;2022-11-30T15:57:08;8.10;63.90
50758;DHT22;36732;47.980;11.652;2022-11-30T15:59:34;8.10;64.00
50758;DHT22;36732;47.980;11.652;2022-11-30T16:02:00;8.10;64.10
50758;DHT22;36732;47.980;11.652;2022-11-30T16:10:21;8.10;64.20
50758;DHT22;36732;47.980;11.652;2022-11-30T16:12:50;8.00;64.10
50758;DHT22;36732;47.980;11.652;2022-11-30T16:15:35;8.00;64.00
50758;DHT22;36732;47.980;11.652;2022-11-30T16:20:42;8.00;63.80
50758;DHT22;36732;47.980;11.652;2022-11-30T16:23:12;8.10;63.80
50758;DHT22;36732;47.980;11.652;2022-11-30T16:25:41;8.00;63.60
50758;DHT22;36732;47.980;11.652;2022-11-30T16:28:08;8.00;63.70
50758;DHT22;36732;47.980;11.652;2022-11-30T16:30:35;8.00;63.80
50758;DHT22;36732;47.980;11.652;2022-11-30T16:33:02;8.00;63.80
50758;DHT22;36732;47.980;11.652;2022-11-30T16:35:35;8.00;63.90
50758;DHT22;36732;47.980;11.652;2022-11-30T16:38:02;8.00;63.80
50758;DHT22;36732;47.980;11.652;2022-11-30T16:40:28;8.00;63.80
50758;DHT22;36732;47.980;11.652;2022-11-30T16:42:54;7.90;63.70
50758;DHT22;36732;47.980;11.652;2022-11-30T16:45:22;7.90;63.60
50758;DHT22;36732;47.980;11.652;2022-11-30T16:47:50;7.90;63.60
50758;DHT22;36732;47.980;11.652;2022-11-30T16:50:17;7.90;63.70
50758;DHT22;36732;47.980;11.652;2022-11-30T16:52:44;7.90;63.70
50758;DHT22;36732;47.980;11.652;2022-11-30T16:55:18;7.80;63.70
50758;DHT22;36732;47.980;11.652;2022-11-30T16:57:45;7.80;63.60
50758;DHT22;36732;47.980;11.652;2022-11-30T17:00:14;7.80;63.60
50758;DHT22;36732;47.980;11.652;2022-11-30T17:02:52;7.80;63.70
50758;DHT22;36732;47.980;11.652;2022-11-30T17:05:19;7.80;63.60
50758;DHT22;36732;47.980;11.652;2022-11-30T17:07:45;7.80;63.60
50758;DHT22;36732;47.980;11.652;2022-11-30T17:10:10;7.80;63.60
50758;DHT22;36732;47.980;11.652;2022-11-30T17:12:37;7.80;63.60
50758;DHT22;36732;47.980;11.652;2022-11-30T17:15:04;7.80;63.50
50758;DHT22;36732;47.980;11.652;2022-11-30T17:17:30;7.70;63.40
50758;DHT22;36732;47.980;11.652;2022-11-30T17:19:56;7.70;63.60
50758;DHT22;36732;47.980;11.652;2022-11-30T17:22:21;7.70;63.80
50758;DHT22;36732;47.980;11.652;2022-11-30T17:24:47;7.70;63.90
50758;DHT22;36732;47.980;11.652;2022-11-30T17:27:13;7.70;64.00
50758;DHT22;36732;47.980;11.652;2022-11-30T17:29:38;7.70;63.90
50758;DHT22;36732;47.980;11.652;2022-11-30T17:32:05;7.70;63.90
50758;DHT22;36732;47.980;11.652;2022-11-30T17:34:30;7.80;64.00
50758;DHT22;36732;47.980;11.652;2022-11-30T17:36:56;7.70;63.90
50758;DHT22;36732;47.980;11.652;2022-11-30T17:39:22;7.70;63.80
50758;DHT22;36732;47.980;11.652;2022-11-30T17:41:48;7.70;63.80
50758;DHT22;36732;47.980;11.652;2022-11-30T17:44:14;7.70;63.60
50758;DHT22;36732;47.980;11.652;2022-11-30T17:46:40;7.70;63.60